sensor_id;sensor_type;location;lat;lon;timestamp;pressure;altitude;pressure_sealevel;temperature;humidity
7662;BME280;30314;48.184;11.510;2023-07-31T00:00:07;96079.81;;;15.87;100.00
7662;BME280;30314;48.184;11.510;2023-07-31T00:02:38;96079.97;;;15.91;100.00
7662;BME280;30314;48.184;11.510;2023-07-31T00:05:05;96083.56;;;15.86;100.00
7662;BME280;30314;48.184;11.510;2023-07-31T00:07:32;96090.94;;;15.81;100.00
7662;BME280;30314;48.184;11.510;2023-07-31T00:09:58;96072.91;;;15.69;100.00
7662;BME280;30314;48.184;11.510;2023-07-31T00:12:25;96081.22;;;15.67;100.00
7662;BME280;30314;48.184;11.510;2023-07-31T00:14:52;96081.84;;;15.64;100.00
7662;BME280;30314;48.184;11.510;2023-07-31T00:17:18;96074.63;;;15.56;100.00
7662;BME280;30314;48.184;11.510;2023-07-31T00:19:45;96083.41;;;15.56;100.00
7662;BME280;30314;48.184;11.510;2023-07-31T00:22:16;96083.25;;;15.53;100.00
7662;BME280;30314;48.184;11.510;2023-07-31T00:24:43;96083.25;;;15.53;100.00
7662;BME280;30314;48.184;11.510;2023-07-31T00:27:10;96082.47;;;15.52;100.00
7662;BME280;30314;48.184;11.510;2023-07-31T00:29:37;96072.13;;;15.50;100.00
7662;BME280;30314;48.184;11.510;2023-07-31T00:32:03;96077.63;;;15.54;100.00
7662;BME280;30314;48.184;11.510;2023-07-31T00:34:30;96069.16;;;15.52;100.00
7662;BME280;30314;48.184;11.510;2023-07-31T00:36:57;96069.94;;;15.53;100.00
7662;BME280;30314;48.184;11.510;2023-07-31T00:39:23;96059.28;;;15.44;100.00
7662;BME280;30314;48.184;11.510;2023-07-31T00:41:50;96040.63;;;15.35;100.00
7662;BME280;30314;48.184;11.510;2023-07-31T00:44:16;96053.97;;;15.53;100.00
7662;BME280;30314;48.184;11.510;2023-07-31T00:46:44;96054.13;;;15.47;100.00
7662;BME280;30314;48.184;11.510;2023-07-31T00:49:10;96058.34;;;15.48;100.00
7662;BME280;30314;48.184;11.510;2023-07-31T00:51:37;96063.22;;;15.46;100.00
7662;BME280;30314;48.184;11.510;2023-07-31T00:54:04;96050.84;;;15.42;100.00
7662;BME280;30314;48.184;11.510;2023-07-31T00:56:32;96049.25;;;15.41;100.00
7662;BME280;30314;48.184;11.510;2023-07-31T00:59:00;96055.06;;;15.43;100.00
7662;BME280;30314;48.184;11.510;2023-07-31T01:01:27;96053.03;;;15.48;100.00
7662;BME280;30314;48.184;11.510;2023-07-31T01:03:54;96055.84;;;15.52;100.00
7662;BME280;30314;48.184;11.510;2023-07-31T01:12:03;96060.72;;;15.59;100.00
7662;BME280;30314;48.184;11.510;2023-07-31T01:14:30;96056.16;;;15.68;100.00
7662;BME280;30314;48.184;11.510;2023-07-31T01:16:57;96038.31;;;15.77;100.00
7662;BME280;30314;48.184;11.510;2023-07-31T01:19:25;96038.63;;;15.85;100.00
7662;BME280;30314;48.184;11.510;2023-07-31T01:27:24;96038.75;;;15.88;100.00
7662;BME280;30314;48.184;11.510;2023-07-31T01:30:00;96036.56;;;15.82;100.00
7662;BME280;30314;48.184;11.510;2023-07-31T01:32:31;96012.31;;;15.66;100.00
7662;BME280;30314;48.184;11.510;2023-07-31T01:34:59;96021.53;;;15.68;100.00
7662;BME280;30314;48.184;11.510;2023-07-31T01:41:32;96023.44;;;15.68;100.00
7662;BME280;30314;48.184;11.510;2023-07-31T01:43:59;96033.94;;;15.64;100.00
7662;BME280;30314;48.184;11.510;2023-07-31T01:46:26;96026.09;;;15.59;100.00
7662;BME280;30314;48.184;11.510;2023-07-31T01:48:52;96025.47;;;15.62;100.00
7662;BME280;30314;48.184;11.510;2023-07-31T01:51:19;96013.88;;;15.49;100.00
7662;BME280;30314;48.184;11.510;2023-07-31T01:53:45;96021.56;;;15.59;100.00
7662;BME280;30314;48.184;11.510;2023-07-31T01:56:12;96012.81;;;15.59;100.00
7662;BME280;30314;48.184;11.510;2023-07-31T01:58:38;96000.44;;;15.45;100.00
7662;BME280;30314;48.184;11.510;2023-07-31T02:01:05;96019.38;;;15.53;100.00
7662;BME280;30314;48.184;11.510;2023-07-31T02:03:33;96012.66;;;15.46;100.00
7662;BME280;30314;48.184;11.510;2023-07-31T02:06:00;96011.69;;;15.42;100.00
7662;BME280;30314;48.184;11.510;2023-07-31T02:08:27;96012.47;;;15.43;100.00
7662;BME280;30314;48.184;11.510;2023-07-31T02:10:53;96017.16;;;15.46;100.00
7662;BME280;30314;48.184;11.510;2023-07-31T02:13:20;95994.47;;;15.31;100.00
7662;BME280;30314;48.184;11.510;2023-07-31T02:15:46;96007.59;;;15.36;100.00
7662;BME280;30314;48.184;11.510;2023-07-31T02:18:13;96000.41;;;15.36;100.00
7662;BME280;30314;48.184;11.510;2023-07-31T02:20:40;96003.06;;;15.36;100.00
7662;BME280;30314;48.184;11.510;2023-07-31T02:23:06;95998.50;;;15.37;100.00
7662;BME280;30314;48.184;11.510;2023-07-31T02:25:38;96005.09;;;15.31;100.00
7662;BME280;30314;48.184;11.510;2023-07-31T02:28:04;95989.28;;;15.26;100.00
7662;BME280;30314;48.184;11.510;2023-07-31T02:30:31;95986.63;;;15.26;100.00
7662;BME280;30314;48.184;11.510;2023-07-31T02:32:58;95988.00;;;15.23;100.00
7662;BME280;30314;48.184;11.510;2023-07-31T02:35:25;95966.91;;;15.09;100.00
7662;BME280;30314;48.184;11.510;2023-07-31T02:37:52;95962.34;;;15.10;100.00
7662;BME280;30314;48.184;11.510;2023-07-31T02:40:18;95987.88;;;15.28;100.00
7662;BME280;30314;48.184;11.510;2023-07-31T02:42:45;95935.91;;;14.96;100.00
7662;BME280;30314;48.184;11.510;2023-07-31T02:45:11;95979.44;;;15.17;100.00
7662;BME280;30314;48.184;11.510;2023-07-31T02:47:38;95950.13;;;15.00;100.00
7662;BME280;30314;48.184;11.510;2023-07-31T02:50:05;95981.59;;;15.15;100.00
7662;BME280;30314;48.184;11.510;2023-07-31T02:52:32;95971.56;;;15.03;100.00
7662;BME280;30314;48.184;11.510;2023-07-31T02:54:58;95968.91;;;14.94;100.00
7662;BME280;30314;48.184;11.510;2023-07-31T02:57:25;95969.53;;;14.91;100.00
7662;BME280;30314;48.184;11.510;2023-07-31T02:59:51;95976.41;;;14.92;100.00
7662;BME280;30314;48.184;11.510;2023-07-31T03:02:18;95962.94;;;14.80;100.00
7662;BME280;30314;48.184;11.510;2023-07-31T03:04:45;95965.13;;;14.78;100.00
7662;BME280;30314;48.184;11.510;2023-07-31T03:07:13;95966.22;;;14.77;100.00
7662;BME280;30314;48.184;11.510;2023-07-31T03:09:40;95958.56;;;14.75;100.00
7662;BME280;30314;48.184;11.510;2023-07-31T03:12:07;95962.94;;;14.71;100.00
7662;BME280;30314;48.184;11.510;2023-07-31T03:14:34;95959.78;;;14.69;100.00
7662;BME280;30314;48.184;11.510;2023-07-31T03:17:00;95965.09;;;14.69;100.00
7662;BME280;30314;48.184;11.510;2023-07-31T03:19:30;95971.03;;;14.66;100.00
7662;BME280;30314;48.184;11.510;2023-07-31T03:21:57;95974.78;;;14.65;100.00
7662;BME280;30314;48.184;11.510;2023-07-31T03:24:23;95962.09;;;14.53;100.00
7662;BME280;30314;48.184;11.510;2023-07-31T03:26:50;95968.34;;;14.57;100.00
7662;BME280;30314;48.184;11.510;2023-07-31T03:29:16;95962.09;;;14.53;100.00
7662;BME280;30314;48.184;11.510;2023-07-31T03:31:43;95968.00;;;14.50;100.00
7662;BME280;30314;48.184;11.510;2023-07-31T03:34:09;95971.16;;;14.52;100.00
7662;BME280;30314;48.184;11.510;2023-07-31T03:36:36;95963.59;;;14.36;100.00
7662;BME280;30314;48.184;11.510;2023-07-31T03:39:03;95973.31;;;14.50;100.00
7662;BME280;30314;48.184;11.510;2023-07-31T03:41:30;95974.75;;;14.56;100.00
7662;BME280;30314;48.184;11.510;2023-07-31T03:43:57;95980.09;;;14.56;100.00
7662;BME280;30314;48.184;11.510;2023-07-31T03:46:24;95986.50;;;14.64;100.00
7662;BME280;30314;48.184;11.510;2023-07-31T03:48:51;95978.84;;;14.62;100.00
7662;BME280;30314;48.184;11.510;2023-07-31T03:51:17;95985.28;;;14.70;100.00
7662;BME280;30314;48.184;11.510;2023-07-31T03:53:44;95981.84;;;14.70;100.00
7662;BME280;30314;48.184;11.510;2023-07-31T03:56:11;95975.28;;;14.76;100.00
7662;BME280;30314;48.184;11.510;2023-07-31T03:58:38;95977.34;;;14.79;100.00
7662;BME280;30314;48.184;11.510;2023-07-31T04:01:04;95967.44;;;14.71;100.00
7662;BME280;30314;48.184;11.510;2023-07-31T04:03:31;95982.31;;;14.80;100.00
7662;BME280;30314;48.184;11.510;2023-07-31T04:05:57;95964.81;;;14.79;100.00
7662;BME280;30314;48.184;11.510;2023-07-31T04:08:24;95976.25;;;14.89;100.00
7662;BME280;30314;48.184;11.510;2023-07-31T04:10:50;95974.53;;;14.93;100.00
7662;BME280;30314;48.184;11.510;2023-07-31T04:13:17;95966.25;;;14.94;100.00
7662;BME280;30314;48.184;11.510;2023-07-31T04:15:50;95977.06;;;15.07;100.00
7662;BME280;30314;48.184;11.510;2023-07-31T04:18:20;95968.13;;;15.03;100.00
7662;BME280;30314;48.184;11.510;2023-07-31T04:20:47;95966.59;;;15.11;100.00
7662;BME280;30314;48.184;11.510;2023-07-31T04:23:14;95949.50;;;15.03;100.00
7662;BME280;30314;48.184;11.510;2023-07-31T04:25:40;95961.41;;;15.14;100.00
7662;BME280;30314;48.184;11.510;2023-07-31T04:28:07;95969.09;;;15.16;100.00
7662;BME280;30314;48.184;11.510;2023-07-31T04:30:34;95967.69;;;15.18;100.00
7662;BME280;30314;48.184;11.510;2023-07-31T04:33:00;95965.97;;;15.22;100.00
7662;BME280;30314;48.184;11.510;2023-07-31T04:35:27;95961.41;;;15.23;100.00
7662;BME280;30314;48.184;11.510;2023-07-31T04:37:54;95968.00;;;15.26;100.00
7662;BME280;30314;48.184;11.510;2023-07-31T04:40:20;95968.16;;;15.29;100.00
7662;BME280;30314;48.184;11.510;2023-07-31T04:42:48;95961.91;;;15.34;100.00
7662;BME280;30314;48.184;11.510;2023-07-31T04:45:15;95965.50;;;15.38;100.00
7662;BME280;30314;48.184;11.510;2023-07-31T04:47:41;95961.09;;;15.33;100.00
7662;BME280;30314;48.184;11.510;2023-07-31T04:50:08;95964.09;;;15.41;100.00
7662;BME280;30314;48.184;11.510;2023-07-31T04:52:35;95960.06;;;15.43;100.00
7662;BME280;30314;48.184;11.510;2023-07-31T04:55:02;95950.78;;;15.41;100.00
7662;BME280;30314;48.184;11.510;2023-07-31T04:57:29;95953.94;;;15.43;100.00
7662;BME280;30314;48.184;11.510;2023-07-31T04:59:55;95956.88;;;15.41;100.00
7662;BME280;30314;48.184;11.510;2023-07-31T05:02:22;95950.47;;;15.42;100.00
7662;BME280;30314;48.184;11.510;2023-07-31T05:04:49;95947.69;;;15.47;100.00
7662;BME280;30314;48.184;11.510;2023-07-31T05:07:15;95958.47;;;15.51;100.00
7662;BME280;30314;48.184;11.510;2023-07-31T05:09:43;95949.41;;;15.43;100.00
7662;BME280;30314;48.184;11.510;2023-07-31T05:12:10;95961.44;;;15.49;100.00
7662;BME280;30314;48.184;11.510;2023-07-31T05:14:36;95973.34;;;15.61;100.00
7662;BME280;30314;48.184;11.510;2023-07-31T05:17:04;95964.44;;;15.57;100.00
7662;BME280;30314;48.184;11.510;2023-07-31T05:19:30;95962.50;;;15.66;100.00
7662;BME280;30314;48.184;11.510;2023-07-31T05:21:57;95965.16;;;15.75;100.00
7662;BME280;30314;48.184;11.510;2023-07-31T05:24:24;95949.19;;;15.75;100.00
7662;BME280;30314;48.184;11.510;2023-07-31T05:26:50;95933.69;;;15.77;100.00
7662;BME280;30314;48.184;11.510;2023-07-31T05:29:17;95953.53;;;15.88;100.00
7662;BME280;30314;48.184;11.510;2023-07-31T05:31:43;95957.13;;;16.01;100.00
7662;BME280;30314;48.184;11.510;2023-07-31T05:34:10;95940.69;;;15.99;100.00
7662;BME280;30314;48.184;11.510;2023-07-31T05:36:36;95940.81;;;16.12;100.00
7662;BME280;30314;48.184;11.510;2023-07-31T05:39:03;95954.22;;;16.24;100.00
7662;BME280;30314;48.184;11.510;2023-07-31T05:41:33;95949.16;;;16.31;100.00
7662;BME280;30314;48.184;11.510;2023-07-31T05:44:01;95957.28;;;16.44;100.00
7662;BME280;30314;48.184;11.510;2023-07-31T05:46:28;95948.38;;;16.40;100.00
7662;BME280;30314;48.184;11.510;2023-07-31T05:48:55;95950.03;;;16.53;100.00
7662;BME280;30314;48.184;11.510;2023-07-31T05:51:21;95961.34;;;16.50;100.00
7662;BME280;30314;48.184;11.510;2023-07-31T05:53:48;95954.09;;;16.51;100.00
7662;BME280;30314;48.184;11.510;2023-07-31T05:56:31;95955.34;;;16.53;100.00
7662;BME280;30314;48.184;11.510;2023-07-31T05:58:58;95947.34;;;16.62;100.00
7662;BME280;30314;48.184;11.510;2023-07-31T06:01:24;95958.75;;;16.71;100.00
7662;BME280;30314;48.184;11.510;2023-07-31T06:03:51;95950.34;;;16.82;100.00
7662;BME280;30314;48.184;11.510;2023-07-31T06:06:18;95961.94;;;16.86;100.00
7662;BME280;30314;48.184;11.510;2023-07-31T06:08:44;95950.81;;;16.84;100.00
7662;BME280;30314;48.184;11.510;2023-07-31T06:11:11;95961.56;;;16.96;100.00
7662;BME280;30314;48.184;11.510;2023-07-31T06:13:37;95959.22;;;16.95;100.00
7662;BME280;30314;48.184;11.510;2023-07-31T06:16:05;95960.56;;;17.01;100.00
7662;BME280;30314;48.184;11.510;2023-07-31T06:18:32;95964.56;;;17.16;100.00
7662;BME280;30314;48.184;11.510;2023-07-31T06:20:59;95969.00;;;17.12;100.00
7662;BME280;30314;48.184;11.510;2023-07-31T06:23:26;95969.25;;;17.19;100.00
7662;BME280;30314;48.184;11.510;2023-07-31T06:25:52;95970.19;;;17.23;100.00
7662;BME280;30314;48.184;11.510;2023-07-31T06:28:19;95964.34;;;17.21;100.00
7662;BME280;30314;48.184;11.510;2023-07-31T06:30:45;95961.59;;;17.17;100.00
7662;BME280;30314;48.184;11.510;2023-07-31T06:33:12;95978.19;;;17.23;100.00
7662;BME280;30314;48.184;11.510;2023-07-31T06:35:39;95969.06;;;17.24;100.00
7662;BME280;30314;48.184;11.510;2023-07-31T06:38:06;95968.28;;;17.24;100.00
7662;BME280;30314;48.184;11.510;2023-07-31T06:40:32;95966.25;;;17.21;100.00
7662;BME280;30314;48.184;11.510;2023-07-31T06:42:59;95964.94;;;17.27;100.00
7662;BME280;30314;48.184;11.510;2023-07-31T06:45:25;95961.06;;;17.24;100.00
7662;BME280;30314;48.184;11.510;2023-07-31T06:47:52;95968.84;;;17.29;100.00
7662;BME280;30314;48.184;11.510;2023-07-31T06:50:19;95956.75;;;17.32;100.00
7662;BME280;30314;48.184;11.510;2023-07-31T06:52:45;95942.97;;;17.30;100.00
7662;BME280;30314;48.184;11.510;2023-07-31T06:55:20;95932.28;;;17.30;100.00
7662;BME280;30314;48.184;11.510;2023-07-31T06:57:50;95954.38;;;17.52;100.00
7662;BME280;30314;48.184;11.510;2023-07-31T07:00:17;95936.09;;;17.41;100.00
7662;BME280;30314;48.184;11.510;2023-07-31T07:02:45;95939.56;;;17.42;100.00
7662;BME280;30314;48.184;11.510;2023-07-31T07:05:14;95947.25;;;17.43;100.00
7662;BME280;30314;48.184;11.510;2023-07-31T07:07:41;95949.31;;;17.59;100.00
7662;BME280;30314;48.184;11.510;2023-07-31T07:10:08;95962.00;;;17.62;100.00
7662;BME280;30314;48.184;11.510;2023-07-31T07:12:35;95954.44;;;17.64;100.00
7662;BME280;30314;48.184;11.510;2023-07-31T07:15:02;95961.94;;;17.71;100.00
7662;BME280;30314;48.184;11.510;2023-07-31T07:17:29;95954.88;;;17.66;100.00
7662;BME280;30314;48.184;11.510;2023-07-31T07:20:00;95958.88;;;17.60;100.00
7662;BME280;30314;48.184;11.510;2023-07-31T07:22:27;95957.53;;;17.66;100.00
7662;BME280;30314;48.184;11.510;2023-07-31T07:24:54;95947.03;;;17.70;100.00
7662;BME280;30314;48.184;11.510;2023-07-31T07:27:20;95942.41;;;17.58;100.00
7662;BME280;30314;48.184;11.510;2023-07-31T07:29:47;95950.25;;;17.75;100.00
7662;BME280;30314;48.184;11.510;2023-07-31T07:32:16;95939.84;;;17.83;100.00
7662;BME280;30314;48.184;11.510;2023-07-31T07:34:43;95948.31;;;17.97;100.00
7662;BME280;30314;48.184;11.510;2023-07-31T07:37:11;95940.63;;;17.96;100.00
7662;BME280;30314;48.184;11.510;2023-07-31T07:39:38;95941.06;;;17.98;100.00
7662;BME280;30314;48.184;11.510;2023-07-31T07:42:05;95940.31;;;18.10;100.00
7662;BME280;30314;48.184;11.510;2023-07-31T07:44:31;95936.09;;;18.21;100.00
7662;BME280;30314;48.184;11.510;2023-07-31T07:46:58;95935.44;;;18.24;100.00
7662;BME280;30314;48.184;11.510;2023-07-31T07:49:25;95932.66;;;18.45;100.00
7662;BME280;30314;48.184;11.510;2023-07-31T07:51:51;95909.72;;;18.32;100.00
7662;BME280;30314;48.184;11.510;2023-07-31T07:54:18;95923.19;;;18.36;99.19
7662;BME280;30314;48.184;11.510;2023-07-31T07:56:46;95904.94;;;18.25;100.00
7662;BME280;30314;48.184;11.510;2023-07-31T07:59:13;95909.72;;;18.32;99.46
7662;BME280;30314;48.184;11.510;2023-07-31T08:01:39;95903.81;;;18.39;100.00
7662;BME280;30314;48.184;11.510;2023-07-31T08:04:06;95909.78;;;18.60;100.00
7662;BME280;30314;48.184;11.510;2023-07-31T08:06:32;95911.44;;;18.90;96.99
7662;BME280;30314;48.184;11.510;2023-07-31T08:08:59;95910.69;;;19.18;95.37
7662;BME280;30314;48.184;11.510;2023-07-31T08:11:32;95907.97;;;19.30;90.76
7662;BME280;30314;48.184;11.510;2023-07-31T08:13:58;95908.47;;;19.49;88.60
7662;BME280;30314;48.184;11.510;2023-07-31T08:16:25;95914.56;;;19.62;86.98
7662;BME280;30314;48.184;11.510;2023-07-31T08:18:52;95915.31;;;19.62;92.58
7662;BME280;30314;48.184;11.510;2023-07-31T08:21:18;95917.91;;;19.58;86.28
7662;BME280;30314;48.184;11.510;2023-07-31T08:23:45;95915.19;;;19.71;84.84
7662;BME280;30314;48.184;11.510;2023-07-31T08:26:16;95924.56;;;19.65;85.61
7662;BME280;30314;48.184;11.510;2023-07-31T08:28:43;95922.47;;;19.58;88.56
7662;BME280;30314;48.184;11.510;2023-07-31T08:31:09;95921.91;;;19.36;82.26
7662;BME280;30314;48.184;11.510;2023-07-31T08:33:38;95923.59;;;19.28;82.48
7662;BME280;30314;48.184;11.510;2023-07-31T08:36:04;95914.72;;;19.24;84.42
7662;BME280;30314;48.184;11.510;2023-07-31T08:38:31;95922.31;;;19.22;81.47
7662;BME280;30314;48.184;11.510;2023-07-31T08:40:58;95917.41;;;19.12;84.61
7662;BME280;30314;48.184;11.510;2023-07-31T08:43:26;95914.00;;;18.99;84.83
7662;BME280;30314;48.184;11.510;2023-07-31T08:45:54;95905.75;;;19.04;89.16
7662;BME280;30314;48.184;11.510;2023-07-31T08:48:22;95916.34;;;19.00;87.64
7662;BME280;30314;48.184;11.510;2023-07-31T08:50:50;95913.91;;;18.95;87.51
7662;BME280;30314;48.184;11.510;2023-07-31T08:53:17;95882.59;;;18.71;86.54
7662;BME280;30314;48.184;11.510;2023-07-31T08:55:44;95909.22;;;18.67;88.61
7662;BME280;30314;48.184;11.510;2023-07-31T08:58:13;95913.72;;;18.76;84.59
7662;BME280;30314;48.184;11.510;2023-07-31T09:00:41;95908.69;;;18.74;87.19
7662;BME280;30314;48.184;11.510;2023-07-31T09:03:15;95904.47;;;18.73;87.75
7662;BME280;30314;48.184;11.510;2023-07-31T09:05:44;95916.47;;;18.92;91.01
7662;BME280;30314;48.184;11.510;2023-07-31T09:08:20;95916.91;;;18.94;88.74
7662;BME280;30314;48.184;11.510;2023-07-31T09:10:48;95909.34;;;19.24;83.47
7662;BME280;30314;48.184;11.510;2023-07-31T09:13:18;95900.47;;;19.36;77.84
7662;BME280;30314;48.184;11.510;2023-07-31T09:15:45;95902.25;;;19.44;76.45
7662;BME280;30314;48.184;11.510;2023-07-31T09:18:12;95906.56;;;19.49;79.72
7662;BME280;30314;48.184;11.510;2023-07-31T09:20:40;95887.63;;;19.42;76.99
7662;BME280;30314;48.184;11.510;2023-07-31T09:23:08;95899.03;;;19.39;80.09
7662;BME280;30314;48.184;11.510;2023-07-31T09:25:35;95877.94;;;19.37;81.48
7662;BME280;30314;48.184;11.510;2023-07-31T09:28:07;95891.44;;;19.41;82.02
7662;BME280;30314;48.184;11.510;2023-07-31T09:30:49;95873.53;;;19.29;76.40
7662;BME280;30314;48.184;11.510;2023-07-31T09:33:17;95885.22;;;19.37;82.67
7662;BME280;30314;48.184;11.510;2023-07-31T09:35:44;95886.59;;;19.47;83.92
7662;BME280;30314;48.184;11.510;2023-07-31T09:38:15;95845.88;;;19.25;82.49
7662;BME280;30314;48.184;11.510;2023-07-31T09:40:44;95892.06;;;19.66;81.76
7662;BME280;30314;48.184;11.510;2023-07-31T09:43:13;95889.84;;;19.68;76.38
7662;BME280;30314;48.184;11.510;2023-07-31T09:45:41;95889.59;;;19.74;81.88
7662;BME280;30314;48.184;11.510;2023-07-31T09:48:11;95877.78;;;19.75;80.22
7662;BME280;30314;48.184;11.510;2023-07-31T09:50:39;95861.31;;;19.60;77.56
7662;BME280;30314;48.184;11.510;2023-07-31T09:53:07;95862.28;;;19.68;79.27
7662;BME280;30314;48.184;11.510;2023-07-31T09:55:34;95870.06;;;19.73;78.78
7662;BME280;30314;48.184;11.510;2023-07-31T09:58:06;95871.91;;;19.85;81.88
7662;BME280;30314;48.184;11.510;2023-07-31T10:00:34;95867.69;;;19.84;77.02
7662;BME280;30314;48.184;11.510;2023-07-31T10:03:04;95852.28;;;19.97;76.43
7662;BME280;30314;48.184;11.510;2023-07-31T10:05:35;95836.72;;;19.86;70.76
7662;BME280;30314;48.184;11.510;2023-07-31T10:08:03;95859.84;;;20.27;72.97
7662;BME280;30314;48.184;11.510;2023-07-31T10:10:30;95855.19;;;20.24;70.61
7662;BME280;30314;48.184;11.510;2023-07-31T10:12:59;95834.81;;;20.03;76.18
7662;BME280;30314;48.184;11.510;2023-07-31T10:15:27;95821.75;;;20.02;74.25
7662;BME280;30314;48.184;11.510;2023-07-31T10:17:54;95831.75;;;20.21;76.97
7662;BME280;30314;48.184;11.510;2023-07-31T10:20:23;95822.38;;;20.31;71.73
7662;BME280;30314;48.184;11.510;2023-07-31T10:22:51;95810.41;;;20.24;77.37
7662;BME280;30314;48.184;11.510;2023-07-31T10:25:20;95815.53;;;20.49;73.63
7662;BME280;30314;48.184;11.510;2023-07-31T10:27:48;95805.22;;;20.51;73.22
7662;BME280;30314;48.184;11.510;2023-07-31T10:30:17;95824.13;;;20.59;75.33
7662;BME280;30314;48.184;11.510;2023-07-31T10:32:46;95820.53;;;20.51;68.57
7662;BME280;30314;48.184;11.510;2023-07-31T10:35:17;95818.09;;;20.62;71.34
7662;BME280;30314;48.184;11.510;2023-07-31T10:37:44;95809.78;;;20.67;70.93
7662;BME280;30314;48.184;11.510;2023-07-31T10:40:12;95815.56;;;20.69;69.05
7662;BME280;30314;48.184;11.510;2023-07-31T10:42:46;95820.22;;;20.72;66.78
7662;BME280;30314;48.184;11.510;2023-07-31T10:45:14;95808.44;;;20.77;64.41
7662;BME280;30314;48.184;11.510;2023-07-31T10:47:49;95804.81;;;20.69;64.80
7662;BME280;30314;48.184;11.510;2023-07-31T10:50:22;95778.53;;;20.59;65.96
7662;BME280;30314;48.184;11.510;2023-07-31T10:52:59;95810.47;;;20.83;60.79
7662;BME280;30314;48.184;11.510;2023-07-31T10:55:32;95795.88;;;20.81;68.09
7662;BME280;30314;48.184;11.510;2023-07-31T10:58:12;95798.94;;;21.03;71.12
7662;BME280;30314;48.184;11.510;2023-07-31T11:00:41;95790.81;;;21.42;65.10
7662;BME280;30314;48.184;11.510;2023-07-31T11:03:18;95800.81;;;21.42;61.99
7662;BME280;30314;48.184;11.510;2023-07-31T11:05:52;95798.38;;;21.56;64.44
7662;BME280;30314;48.184;11.510;2023-07-31T11:08:27;95800.03;;;21.64;70.93
7662;BME280;30314;48.184;11.510;2023-07-31T11:13:34;95772.06;;;21.92;66.71
7662;BME280;30314;48.184;11.510;2023-07-31T11:16:05;95772.38;;;21.87;60.72
7662;BME280;30314;48.184;11.510;2023-07-31T11:18:32;95772.16;;;22.00;64.67
7662;BME280;30314;48.184;11.510;2023-07-31T11:20:59;95770.22;;;21.96;63.82
7662;BME280;30314;48.184;11.510;2023-07-31T11:23:25;95772.13;;;21.96;66.00
7662;BME280;30314;48.184;11.510;2023-07-31T11:25:52;95777.97;;;22.02;62.16
7662;BME280;30314;48.184;11.510;2023-07-31T11:28:19;95743.41;;;21.77;61.82
7662;BME280;30314;48.184;11.510;2023-07-31T11:30:46;95776.06;;;21.79;63.29
7662;BME280;30314;48.184;11.510;2023-07-31T11:33:13;95771.34;;;21.95;54.58
7662;BME280;30314;48.184;11.510;2023-07-31T11:38:08;95743.94;;;22.13;62.23
7662;BME280;30314;48.184;11.510;2023-07-31T11:40:44;95751.25;;;22.43;59.11
7662;BME280;30314;48.184;11.510;2023-07-31T11:43:10;95751.53;;;22.65;57.24
7662;BME280;30314;48.184;11.510;2023-07-31T11:45:51;95751.69;;;22.79;56.36
7662;BME280;30314;48.184;11.510;2023-07-31T11:50:51;95724.50;;;22.92;56.82
7662;BME280;30314;48.184;11.510;2023-07-31T11:53:41;95721.06;;;22.95;55.94
7662;BME280;30314;48.184;11.510;2023-07-31T11:56:07;95715.34;;;23.00;56.45
7662;BME280;30314;48.184;11.510;2023-07-31T11:58:36;95705.25;;;22.90;56.00
7662;BME280;30314;48.184;11.510;2023-07-31T12:01:03;95711.84;;;22.96;58.30
7662;BME280;30314;48.184;11.510;2023-07-31T12:03:31;95710.63;;;22.90;57.61
7662;BME280;30314;48.184;11.510;2023-07-31T12:05:59;95706.00;;;22.90;59.03
7662;BME280;30314;48.184;11.510;2023-07-31T12:08:26;95700.19;;;22.85;56.71
7662;BME280;30314;48.184;11.510;2023-07-31T12:10:53;95687.47;;;22.81;57.85
7662;BME280;30314;48.184;11.510;2023-07-31T12:13:25;95696.78;;;22.91;57.89
7662;BME280;30314;48.184;11.510;2023-07-31T12:15:57;95686.44;;;22.93;55.04
7662;BME280;30314;48.184;11.510;2023-07-31T12:18:26;95686.81;;;22.92;56.21
7662;BME280;30314;48.184;11.510;2023-07-31T12:20:57;95672.91;;;22.86;57.61
7662;BME280;30314;48.184;11.510;2023-07-31T12:23:26;95652.88;;;22.84;59.38
7662;BME280;30314;48.184;11.510;2023-07-31T12:26:01;95677.59;;;22.93;60.20
7662;BME280;30314;48.184;11.510;2023-07-31T12:28:28;95655.13;;;22.78;59.29
7662;BME280;30314;48.184;11.510;2023-07-31T12:30:59;95664.88;;;22.90;58.80
7662;BME280;30314;48.184;11.510;2023-07-31T12:33:34;95659.50;;;22.90;55.81
7662;BME280;30314;48.184;11.510;2023-07-31T12:36:03;95655.56;;;22.80;58.29
7662;BME280;30314;48.184;11.510;2023-07-31T12:38:30;95656.69;;;22.79;57.05
7662;BME280;30314;48.184;11.510;2023-07-31T12:40:57;95652.44;;;22.74;62.16
7662;BME280;30314;48.184;11.510;2023-07-31T12:43:23;95658.47;;;22.64;54.79
7662;BME280;30314;48.184;11.510;2023-07-31T12:45:50;95646.47;;;22.54;58.00
7662;BME280;30314;48.184;11.510;2023-07-31T12:48:17;95649.09;;;22.50;61.02
7662;BME280;30314;48.184;11.510;2023-07-31T12:50:44;95640.19;;;22.43;57.43
7662;BME280;30314;48.184;11.510;2023-07-31T12:53:10;95652.94;;;22.49;56.81
7662;BME280;30314;48.184;11.510;2023-07-31T12:55:37;95646.31;;;22.43;59.02
7662;BME280;30314;48.184;11.510;2023-07-31T12:58:03;95650.97;;;22.46;57.66
7662;BME280;30314;48.184;11.510;2023-07-31T13:00:30;95635.06;;;22.34;62.42
7662;BME280;30314;48.184;11.510;2023-07-31T13:02:57;95637.06;;;22.37;61.95
7662;BME280;30314;48.184;11.510;2023-07-31T13:05:23;95631.72;;;22.44;58.65
7662;BME280;30314;48.184;11.510;2023-07-31T13:07:50;95636.81;;;22.49;62.06
7662;BME280;30314;48.184;11.510;2023-07-31T13:10:19;95628.72;;;22.49;58.34
7662;BME280;30314;48.184;11.510;2023-07-31T13:12:45;95613.66;;;22.41;57.95
7662;BME280;30314;48.184;11.510;2023-07-31T13:15:13;95626.47;;;22.55;56.14
7662;BME280;30314;48.184;11.510;2023-07-31T13:17:41;95617.31;;;22.63;56.84
7662;BME280;30314;48.184;11.510;2023-07-31T13:20:08;95618.16;;;22.71;55.66